Time;durP1;ratioP1;P1;durP2;ratioP2;P2;SDS_P1;SDS_P2;PMS_P1;PMS_P2;Temp;Humidity;BMP_temperature;BMP_pressure;BME280_temperature;BME280_humidity;BME280_pressure;Samples;Min_cycle;Max_cycle;Signal;HPM_P1;HPM_P2
2022/02/21 00:00:33;;;;;;;14.88;9.10;;;;;;;;;;4975313;28;20050;-61
2022/02/21 00:02:59;;;;;;;12.85;8.73;;;;;;;;;;4989249;28;20022;-61
2022/02/21 00:05:28;;;;;;;15.48;8.32;;;;;;;;;;4982206;28;20031;-61
2022/02/21 00:07:54;;;;;;;11.18;7.47;;;;;;;;;;4988828;28;20084;-61
2022/02/21 00:10:20;;;;;;;14.02;8.50;;;;;;;;;;4988405;28;20049;-61
2022/02/21 00:12:46;;;;;;;12.68;8.38;;;;;;;;;;4989118;28;20084;-61
2022/02/21 00:15:17;;;;;;;14.63;8.98;;;;;;;;;;4982628;28;20141;-61
2022/02/21 00:17:43;;;;;;;12.13;8.23;;;;;;;;;;4970075;28;20022;-61
2022/02/21 00:20:09;;;;;;;11.57;8.10;;;;;;;;;;4972222;28;20463;-61
2022/02/21 00:22:35;;;;;;;13.25;8.23;;;;;;;;;;4988617;28;20026;-60
2022/02/21 00:25:02;;;;;;;13.23;8.45;;;;;;;;;;4987456;28;20068;-61
2022/02/21 00:27:27;;;;;;;10.93;8.13;;;;;;;;;;4987499;28;20030;-61
2022/02/21 00:29:54;;;;;;;11.27;8.40;;;;;;;;;;4987823;28;20042;-61
2022/02/21 00:32:20;;;;;;;19.02;12.52;;;;;;;;;;4970235;28;20034;-61
2022/02/21 00:34:46;;;;;;;19.55;14.18;;;;;;;;;;4969311;28;20038;-60
2022/02/21 00:37:12;;;;;;;21.52;14.00;;;;;;;;;;4985762;28;20038;-61
2022/02/21 00:39:38;;;;;;;22.95;14.75;;;;;;;;;;4987605;28;20382;-60
2022/02/21 00:42:05;;;;;;;19.80;14.32;;;;;;;;;;4970966;28;20396;-60
2022/02/21 00:44:31;;;;;;;21.05;15.32;;;;;;;;;;4968761;28;20423;-60
2022/02/21 00:46:57;;;;;;;27.98;18.58;;;;;;;;;;4979265;28;20495;-61
2022/02/21 00:49:23;;;;;;;26.48;16.80;;;;;;;;;;4969281;28;20073;-61
2022/02/21 00:51:49;;;;;;;27.90;18.63;;;;;;;;;;4980317;28;20518;-61
2022/02/21 00:54:15;;;;;;;28.58;18.38;;;;;;;;;;4988139;28;20027;-61
2022/02/21 00:56:41;;;;;;;27.95;18.50;;;;;;;;;;4976135;28;20037;-61
2022/02/21 00:59:07;;;;;;;27.88;19.50;;;;;;;;;;4969230;28;20172;-61
2022/02/21 01:01:33;;;;;;;28.63;20.10;;;;;;;;;;4980353;28;20117;-61
2022/02/21 01:03:59;;;;;;;27.17;19.63;;;;;;;;;;4988730;28;20492;-61
2022/02/21 01:06:25;;;;;;;29.95;21.70;;;;;;;;;;4983121;28;20022;-61
2022/02/21 01:08:52;;;;;;;27.63;20.45;;;;;;;;;;4990730;28;20038;-61
2022/02/21 01:11:20;;;;;;;28.77;20.25;;;;;;;;;;4984934;28;20435;-61
2022/02/21 01:13:46;;;;;;;30.75;22.02;;;;;;;;;;4982430;28;20030;-61
2022/02/21 01:16:12;;;;;;;28.40;20.85;;;;;;;;;;4988830;28;20475;-60
2022/02/21 01:18:38;;;;;;;34.58;21.75;;;;;;;;;;4990771;28;20037;-60
2022/02/21 01:21:05;;;;;;;34.53;22.80;;;;;;;;;;4985700;28;20537;-60
2022/02/21 01:23:31;;;;;;;33.35;23.08;;;;;;;;;;4975817;28;20069;-60
2022/02/21 01:25:57;;;;;;;37.50;23.60;;;;;;;;;;4987080;28;20031;-60
2022/02/21 01:28:23;;;;;;;35.92;23.08;;;;;;;;;;4970879;28;20039;-60
2022/02/21 01:30:49;;;;;;;38.90;26.73;;;;;;;;;;4972372;28;20064;-60
2022/02/21 01:33:16;;;;;;;35.45;23.83;;;;;;;;;;4990455;28;20038;-61
2022/02/21 01:35:42;;;;;;;34.42;22.90;;;;;;;;;;4989414;28;20105;-60
2022/02/21 01:38:08;;;;;;;40.47;25.05;;;;;;;;;;4971918;28;20556;-60
2022/02/21 01:40:34;;;;;;;34.20;25.27;;;;;;;;;;4982695;28;20026;-61
2022/02/21 01:43:00;;;;;;;33.42;24.35;;;;;;;;;;4974426;28;20521;-61
2022/02/21 01:45:26;;;;;;;37.67;25.77;;;;;;;;;;4991842;28;20030;-61
2022/02/21 01:47:52;;;;;;;39.05;25.13;;;;;;;;;;4992950;28;20058;-61
2022/02/21 01:50:18;;;;;;;35.67;25.20;;;;;;;;;;4994110;28;20030;-61
2022/02/21 01:52:47;;;;;;;34.92;23.55;;;;;;;;;;4977100;28;20031;-61
2022/02/21 01:55:13;;;;;;;34.30;23.13;;;;;;;;;;4990990;28;20034;-60
2022/02/21 01:57:41;;;;;;;38.90;23.55;;;;;;;;;;4991425;28;20035;-61
2022/02/21 02:00:08;;;;;;;30.42;22.88;;;;;;;;;;4993564;28;20058;-61
2022/02/21 02:02:34;;;;;;;33.88;22.52;;;;;;;;;;4992854;28;20037;-61
2022/02/21 02:05:01;;;;;;;30.38;20.77;;;;;;;;;;4993612;28;20031;-61
2022/02/21 02:07:27;;;;;;;31.08;21.33;;;;;;;;;;4992140;28;20054;-60
2022/02/21 02:09:53;;;;;;;35.08;21.60;;;;;;;;;;4993548;28;20039;-60
2022/02/21 02:12:19;;;;;;;34.35;22.42;;;;;;;;;;4987234;28;20034;-61
2022/02/21 02:14:45;;;;;;;34.30;23.05;;;;;;;;;;4974279;28;20084;-61
2022/02/21 02:17:15;;;;;;;33.15;21.85;;;;;;;;;;4973582;28;20038;-60
2022/02/21 02:19:42;;;;;;;30.65;21.20;;;;;;;;;;4974102;28;20026;-61
2022/02/21 02:22:18;;;;;;;30.05;20.65;;;;;;;;;;4973897;28;20129;-60
2022/02/21 02:24:46;;;;;;;30.05;21.15;;;;;;;;;;4985879;28;20038;-60
2022/02/21 02:27:12;;;;;;;28.92;19.92;;;;;;;;;;4990849;28;20029;-60
2022/02/21 02:29:39;;;;;;;25.95;20.33;;;;;;;;;;4991349;28;20042;-60
2022/02/21 02:32:06;;;;;;;31.48;22.25;;;;;;;;;;4983043;28;20031;-60
2022/02/21 02:34:33;;;;;;;33.35;21.38;;;;;;;;;;4973533;28;20058;-60
2022/02/21 02:36:59;;;;;;;35.80;24.20;;;;;;;;;;4972548;28;20019;-60
2022/02/21 02:39:25;;;;;;;41.38;25.27;;;;;;;;;;4973536;28;20023;-60
2022/02/21 02:41:51;;;;;;;38.20;26.45;;;;;;;;;;4977079;28;20479;-60
2022/02/21 02:44:29;;;;;;;36.80;24.40;;;;;;;;;;4973887;28;20018;-60
2022/02/21 02:47:06;;;;;;;34.80;23.77;;;;;;;;;;4981097;28;20503;-61
2022/02/21 02:49:32;;;;;;;37.17;23.83;;;;;;;;;;4973997;28;20135;-61
2022/02/21 02:51:58;;;;;;;36.58;24.02;;;;;;;;;;4973249;28;20623;-60
2022/02/21 02:54:25;;;;;;;36.10;23.15;;;;;;;;;;4973392;28;20106;-60
2022/02/21 02:56:51;;;;;;;34.10;23.00;;;;;;;;;;4979936;28;20109;-61
2022/02/21 02:59:17;;;;;;;38.60;25.10;;;;;;;;;;4992593;28;20049;-61
2022/02/21 03:01:43;;;;;;;37.42;24.70;;;;;;;;;;4985574;28;20031;-61
2022/02/21 03:04:09;;;;;;;34.15;23.08;;;;;;;;;;4991333;28;20030;-61
2022/02/21 03:06:35;;;;;;;39.13;23.45;;;;;;;;;;4990750;28;20098;-60
2022/02/21 03:09:02;;;;;;;38.47;25.02;;;;;;;;;;4992645;28;20069;-60
2022/02/21 03:11:28;;;;;;;36.38;23.83;;;;;;;;;;4987952;28;20496;-60
2022/02/21 03:13:55;;;;;;;35.08;22.42;;;;;;;;;;4989065;28;20034;-61
2022/02/21 03:16:21;;;;;;;35.45;23.73;;;;;;;;;;4990003;28;20019;-61
2022/02/21 03:18:47;;;;;;;35.05;23.45;;;;;;;;;;4973111;28;20026;-61
2022/02/21 03:21:13;;;;;;;35.72;23.52;;;;;;;;;;4989206;28;20050;-60
2022/02/21 03:23:39;;;;;;;34.03;24.08;;;;;;;;;;4992108;28;20050;-61
2022/02/21 03:26:05;;;;;;;36.80;23.52;;;;;;;;;;4990553;28;20048;-62
2022/02/21 03:28:32;;;;;;;34.60;23.70;;;;;;;;;;4985520;28;20042;-60
2022/02/21 03:30:58;;;;;;;32.92;22.45;;;;;;;;;;4982303;28;20031;-61
2022/02/21 03:33:24;;;;;;;34.63;21.98;;;;;;;;;;4978266;28;20114;-61
2022/02/21 03:35:50;;;;;;;30.30;21.88;;;;;;;;;;4976135;28;20069;-60
2022/02/21 03:38:16;;;;;;;31.45;21.15;;;;;;;;;;4972520;28;20038;-61
2022/02/21 03:40:43;;;;;;;29.77;22.25;;;;;;;;;;4978626;28;20085;-61
2022/02/21 03:43:09;;;;;;;31.75;20.25;;;;;;;;;;4976837;28;20062;-62
2022/02/21 03:45:35;;;;;;;29.48;19.05;;;;;;;;;;4971248;28;20476;-60
2022/02/21 03:48:01;;;;;;;30.30;20.42;;;;;;;;;;4986019;28;20479;-60
2022/02/21 03:50:27;;;;;;;30.17;20.33;;;;;;;;;;4991641;28;20034;-60
2022/02/21 03:52:54;;;;;;;27.60;19.60;;;;;;;;;;4978832;28;20035;-60
2022/02/21 03:55:20;;;;;;;27.52;19.02;;;;;;;;;;4973674;28;20041;-61
2022/02/21 03:57:46;;;;;;;23.13;18.00;;;;;;;;;;4990321;28;20038;-60
2022/02/21 04:00:13;;;;;;;27.70;18.77;;;;;;;;;;4983568;28;20055;-61
2022/02/21 04:02:40;;;;;;;24.60;17.65;;;;;;;;;;4972143;28;20039;-60
2022/02/21 04:05:06;;;;;;;26.23;17.63;;;;;;;;;;4972810;28;20354;-60
2022/02/21 04:07:32;;;;;;;25.25;17.15;;;;;;;;;;4972504;28;20118;-60
2022/02/21 04:09:58;;;;;;;25.27;16.98;;;;;;;;;;4972430;28;20046;-61
2022/02/21 04:12:24;;;;;;;24.38;17.48;;;;;;;;;;4979676;28;20026;-61
2022/02/21 04:14:50;;;;;;;25.90;16.92;;;;;;;;;;4991949;28;20041;-60
2022/02/21 04:17:17;;;;;;;26.50;15.93;;;;;;;;;;4985265;28;20107;-61
2022/02/21 04:19:46;;;;;;;21.40;15.20;;;;;;;;;;4975283;28;20030;-61
2022/02/21 04:22:12;;;;;;;26.02;16.52;;;;;;;;;;4986069;28;20030;-61
2022/02/21 04:24:39;;;;;;;31.25;17.38;;;;;;;;;;4990334;28;20026;-61
2022/02/21 04:27:05;;;;;;;22.25;16.70;;;;;;;;;;4987153;28;20548;-60
2022/02/21 04:29:31;;;;;;;26.05;17.60;;;;;;;;;;4974954;28;20522;-60
2022/02/21 04:31:57;;;;;;;27.63;17.58;;;;;;;;;;4987843;28;20027;-61
2022/02/21 04:34:24;;;;;;;33.38;22.05;;;;;;;;;;4971921;28;20027;-61
2022/02/21 04:36:50;;;;;;;33.78;22.90;;;;;;;;;;4972816;28;20027;-60
2022/02/21 04:39:16;;;;;;;34.28;21.08;;;;;;;;;;4990784;28;20022;-61
2022/02/21 04:41:43;;;;;;;31.65;20.15;;;;;;;;;;4990597;28;20397;-61
2022/02/21 04:44:09;;;;;;;32.30;21.23;;;;;;;;;;4991476;28;20022;-61
2022/02/21 04:46:35;;;;;;;30.92;21.38;;;;;;;;;;4987010;28;20126;-61
2022/02/21 04:49:01;;;;;;;26.83;19.42;;;;;;;;;;4985282;28;20077;-61
2022/02/21 04:51:27;;;;;;;28.05;19.02;;;;;;;;;;4987217;28;20054;-61
2022/02/21 04:53:53;;;;;;;30.52;19.55;;;;;;;;;;4988465;28;20038;-61
2022/02/21 04:56:19;;;;;;;27.27;18.55;;;;;;;;;;4979795;28;20130;-61
2022/02/21 04:58:45;;;;;;;26.95;19.02;;;;;;;;;;4970132;28;20516;-61
2022/02/21 05:01:11;;;;;;;25.13;19.13;;;;;;;;;;4970855;28;20066;-61
2022/02/21 05:03:37;;;;;;;26.27;19.15;;;;;;;;;;4981188;28;20104;-61
2022/02/21 05:06:04;;;;;;;29.27;18.98;;;;;;;;;;4970666;28;20038;-60
2022/02/21 05:08:30;;;;;;;30.25;19.35;;;;;;;;;;4971929;28;20050;-60
2022/02/21 05:10:57;;;;;;;41.90;27.02;;;;;;;;;;4970606;28;20026;-61
2022/02/21 05:13:23;;;;;;;40.65;27.73;;;;;;;;;;4981895;28;20039;-61
2022/02/21 05:15:49;;;;;;;40.70;26.48;;;;;;;;;;4996217;28;20383;-61
2022/02/21 05:18:15;;;;;;;32.78;23.67;;;;;;;;;;4996756;28;20071;-60
2022/02/21 05:20:41;;;;;;;30.23;20.23;;;;;;;;;;4997632;28;20101;-61
2022/02/21 05:23:07;;;;;;;27.15;19.02;;;;;;;;;;4995760;28;20434;-61
2022/02/21 05:25:33;;;;;;;27.73;18.65;;;;;;;;;;4996024;28;20484;-60
2022/02/21 05:27:59;;;;;;;28.17;19.90;;;;;;;;;;4997139;28;20041;-61
2022/02/21 05:30:25;;;;;;;27.02;18.50;;;;;;;;;;4992198;28;20084;-61
2022/02/21 05:32:51;;;;;;;29.58;18.23;;;;;;;;;;4978386;28;20109;-60
2022/02/21 05:35:17;;;;;;;27.92;19.08;;;;;;;;;;4992907;28;20038;-60
2022/02/21 05:37:43;;;;;;;24.90;18.63;;;;;;;;;;4994602;28;20026;-60
2022/02/21 05:40:10;;;;;;;30.13;19.17;;;;;;;;;;4977992;28;20385;-60
2022/02/21 05:42:36;;;;;;;28.38;19.20;;;;;;;;;;4977953;28;20031;-61
2022/02/21 05:45:02;;;;;;;28.52;17.50;;;;;;;;;;4992265;28;20103;-61
2022/02/21 05:47:28;;;;;;;28.00;19.40;;;;;;;;;;4995881;28;20023;-61
2022/02/21 05:49:54;;;;;;;44.60;28.90;;;;;;;;;;4977568;28;20050;-61
2022/02/21 05:52:20;;;;;;;40.72;28.50;;;;;;;;;;4977741;28;20046;-60
2022/02/21 05:54:46;;;;;;;50.25;33.28;;;;;;;;;;4989978;28;20092;-61
2022/02/21 05:57:12;;;;;;;56.00;34.80;;;;;;;;;;4997199;28;20018;-61
2022/02/21 05:59:38;;;;;;;58.33;34.63;;;;;;;;;;4994733;28;20381;-61
2022/02/21 06:02:04;;;;;;;49.28;33.92;;;;;;;;;;4995583;28;20026;-62
2022/02/21 06:04:30;;;;;;;55.63;34.42;;;;;;;;;;4994758;28;20445;-61
2022/02/21 06:06:56;;;;;;;50.40;34.00;;;;;;;;;;4996510;28;20084;-61
2022/02/21 06:09:22;;;;;;;54.70;36.17;;;;;;;;;;4996004;28;20046;-61
2022/02/21 06:11:49;;;;;;;59.80;39.88;;;;;;;;;;4985648;28;20056;-60
2022/02/21 06:14:15;;;;;;;60.55;36.72;;;;;;;;;;4989293;28;20031;-60
2022/02/21 06:16:41;;;;;;;58.00;37.15;;;;;;;;;;4996511;28;20026;-61
2022/02/21 06:19:08;;;;;;;61.00;37.70;;;;;;;;;;4995671;28;20399;-61
2022/02/21 06:21:34;;;;;;;65.10;41.25;;;;;;;;;;4996032;28;20187;-61
2022/02/21 06:24:00;;;;;;;64.22;39.88;;;;;;;;;;4993340;28;20026;-61
2022/02/21 06:26:26;;;;;;;63.85;41.05;;;;;;;;;;4993615;28;20384;-61
2022/02/21 06:28:52;;;;;;;65.22;40.75;;;;;;;;;;4984128;28;20039;-61
2022/02/21 06:31:18;;;;;;;65.78;41.88;;;;;;;;;;4978098;28;20027;-62
2022/02/21 06:33:44;;;;;;;68.07;43.08;;;;;;;;;;4980022;28;20101;-61
2022/02/21 06:36:10;;;;;;;71.28;45.42;;;;;;;;;;4982230;28;20057;-61
2022/02/21 06:38:39;;;;;;;67.20;43.55;;;;;;;;;;4983029;28;20437;-61
2022/02/21 06:41:05;;;;;;;70.93;43.40;;;;;;;;;;4980482;28;20474;-61
2022/02/21 06:43:32;;;;;;;70.88;45.22;;;;;;;;;;4988933;28;20023;-61
2022/02/21 06:45:58;;;;;;;71.97;45.00;;;;;;;;;;4986107;28;20027;-61
2022/02/21 06:48:24;;;;;;;73.15;45.35;;;;;;;;;;4985700;28;20622;-61
2022/02/21 06:51:15;;;;;;;76.82;48.78;;;;;;;;;;4993239;28;20034;-62
2022/02/21 06:53:41;;;;;;;72.80;46.58;;;;;;;;;;4987248;28;20018;-61
2022/02/21 06:56:07;;;;;;;74.70;46.70;;;;;;;;;;4992012;28;20496;-61
2022/02/21 06:58:34;;;;;;;76.22;46.47;;;;;;;;;;4991367;28;20030;-61
2022/02/21 07:01:00;;;;;;;74.88;47.33;;;;;;;;;;4984262;28;20067;-62
2022/02/21 07:03:26;;;;;;;80.70;48.53;;;;;;;;;;4984480;28;20027;-61
2022/02/21 07:05:52;;;;;;;75.43;47.13;;;;;;;;;;4991337;28;20121;-60
2022/02/21 07:08:18;;;;;;;76.40;46.92;;;;;;;;;;4991171;28;20043;-61
2022/02/21 07:10:44;;;;;;;73.28;46.10;;;;;;;;;;4985445;28;20045;-61
2022/02/21 07:13:10;;;;;;;76.75;47.20;;;;;;;;;;4979409;28;20035;-61
2022/02/21 07:15:36;;;;;;;76.53;46.95;;;;;;;;;;4988934;28;20641;-61
2022/02/21 07:18:02;;;;;;;75.57;46.45;;;;;;;;;;4989265;28;20034;-60
2022/02/21 07:20:28;;;;;;;78.80;47.78;;;;;;;;;;4987332;28;20068;-61
2022/02/21 07:22:55;;;;;;;80.55;48.53;;;;;;;;;;4974163;28;20034;-61
2022/02/21 07:25:21;;;;;;;79.07;46.88;;;;;;;;;;4985901;28;20487;-61
2022/02/21 07:27:48;;;;;;;75.55;46.15;;;;;;;;;;4988757;28;20506;-61
2022/02/21 07:30:15;;;;;;;77.82;47.92;;;;;;;;;;4985757;28;20062;-61
2022/02/21 07:32:42;;;;;;;79.20;51.70;;;;;;;;;;4986990;28;20026;-61
2022/02/21 07:35:09;;;;;;;77.38;49.83;;;;;;;;;;4986105;28;20119;-61
2022/02/21 07:37:35;;;;;;;80.35;49.70;;;;;;;;;;4990209;28;20058;-62
2022/02/21 07:40:01;;;;;;;81.13;49.88;;;;;;;;;;4985949;28;20027;-61
2022/02/21 07:42:27;;;;;;;80.05;50.50;;;;;;;;;;4971169;28;20545;-61
2022/02/21 07:44:53;;;;;;;79.93;48.45;;;;;;;;;;4980352;28;20479;-61
2022/02/21 07:47:20;;;;;;;79.60;49.13;;;;;;;;;;4977642;28;20381;-61
2022/02/21 07:49:46;;;;;;;76.70;49.63;;;;;;;;;;4979229;28;20083;-61
2022/02/21 07:52:12;;;;;;;80.78;49.60;;;;;;;;;;4991688;28;20037;-61
2022/02/21 07:54:39;;;;;;;85.38;52.53;;;;;;;;;;4985490;28;20045;-61
2022/02/21 07:57:06;;;;;;;85.15;53.20;;;;;;;;;;4991995;28;20022;-61
2022/02/21 07:59:32;;;;;;;84.93;51.70;;;;;;;;;;4982089;28;20066;-61
2022/02/21 08:11:09;;;;;;;78.90;48.75;;;;;;;;;;4985580;28;20033;-61
2022/02/21 08:13:35;;;;;;;76.78;49.72;;;;;;;;;;4976522;28;20026;-61
2022/02/21 08:16:01;;;;;;;82.40;48.90;;;;;;;;;;4973864;28;20387;-61
2022/02/21 08:18:27;;;;;;;72.13;45.20;;;;;;;;;;4985818;28;20027;-61
2022/02/21 08:20:54;;;;;;;77.78;46.55;;;;;;;;;;4971236;28;20439;-61
2022/02/21 08:23:20;;;;;;;68.78;45.13;;;;;;;;;;4989745;28;20030;-61
2022/02/21 08:25:46;;;;;;;75.72;45.83;;;;;;;;;;4984967;28;20056;-61
2022/02/21 08:28:12;;;;;;;69.90;43.03;;;;;;;;;;4990573;28;20135;-61
2022/02/21 08:30:39;;;;;;;70.47;47.38;;;;;;;;;;4977777;28;20031;-61
2022/02/21 08:33:05;;;;;;;76.57;46.13;;;;;;;;;;4982316;28;20031;-61
2022/02/21 08:35:31;;;;;;;67.63;44.85;;;;;;;;;;4979500;28;20049;-61
2022/02/21 08:37:57;;;;;;;72.88;43.75;;;;;;;;;;4988638;28;20156;-61
2022/02/21 08:40:24;;;;;;;68.75;41.55;;;;;;;;;;4971806;28;20035;-61
2022/02/21 08:42:50;;;;;;;71.18;43.22;;;;;;;;;;4979823;28;20026;-61
2022/02/21 08:45:16;;;;;;;71.20;44.88;;;;;;;;;;4972900;28;20035;-61
2022/02/21 08:47:43;;;;;;;66.93;40.15;;;;;;;;;;4970503;28;20034;-61
2022/02/21 08:50:12;;;;;;;65.95;40.67;;;;;;;;;;4970166;28;20039;-62
2022/02/21 08:52:42;;;;;;;60.70;37.78;;;;;;;;;;4976568;28;20057;-61
2022/02/21 08:55:15;;;;;;;44.08;27.88;;;;;;;;;;4983326;28;20026;-61
2022/02/21 08:57:41;;;;;;;53.00;31.75;;;;;;;;;;4986600;28;20030;-61
2022/02/21 09:00:08;;;;;;;50.33;31.35;;;;;;;;;;4981899;28;20057;-61
2022/02/21 09:02:35;;;;;;;48.88;30.45;;;;;;;;;;4973231;28;20023;-61
2022/02/21 09:05:01;;;;;;;41.90;26.08;;;;;;;;;;4977101;28;20113;-61
2022/02/21 09:07:27;;;;;;;51.20;32.53;;;;;;;;;;4970515;28;20118;-61
2022/02/21 09:09:59;;;;;;;55.97;34.67;;;;;;;;;;4983978;28;20479;-60
2022/02/21 09:12:26;;;;;;;44.50;29.52;;;;;;;;;;4989635;28;20426;-60
2022/02/21 09:14:52;;;;;;;42.85;24.65;;;;;;;;;;4984708;28;20034;-60
2022/02/21 09:17:18;;;;;;;37.28;21.95;;;;;;;;;;4969397;28;20126;-61
2022/02/21 09:19:44;;;;;;;36.65;23.55;;;;;;;;;;4976287;28;20038;-61
2022/02/21 09:22:11;;;;;;;41.90;24.73;;;;;;;;;;4971379;28;20027;-60
2022/02/21 09:24:37;;;;;;;39.17;24.38;;;;;;;;;;4979215;28;20117;-60
2022/02/21 09:27:03;;;;;;;34.22;22.45;;;;;;;;;;4990478;28;20031;-60
2022/02/21 09:29:29;;;;;;;38.50;23.40;;;;;;;;;;4988415;28;20035;-60
2022/02/21 09:31:58;;;;;;;40.28;24.85;;;;;;;;;;4988702;28;20023;-61
2022/02/21 09:34:24;;;;;;;35.15;22.70;;;;;;;;;;4989244;28;20039;-60
2022/02/21 09:36:50;;;;;;;38.85;22.48;;;;;;;;;;4990115;28;20019;-61
2022/02/21 09:39:16;;;;;;;36.75;22.83;;;;;;;;;;4989275;28;20033;-61
2022/02/21 09:41:42;;;;;;;37.85;23.70;;;;;;;;;;4990574;28;20101;-61
2022/02/21 09:44:12;;;;;;;40.40;22.33;;;;;;;;;;4988743;28;20109;-61
2022/02/21 09:46:40;;;;;;;30.83;19.23;;;;;;;;;;4990386;28;20476;-61
2022/02/21 09:49:08;;;;;;;31.50;18.40;;;;;;;;;;4989361;28;20034;-61
2022/02/21 09:51:34;;;;;;;33.67;20.88;;;;;;;;;;4989095;28;20377;-62
2022/02/21 09:54:01;;;;;;;34.10;18.48;;;;;;;;;;4988318;28;20031;-61
2022/02/21 09:56:27;;;;;;;33.00;17.98;;;;;;;;;;4989810;28;20391;-61
2022/02/21 09:58:55;;;;;;;31.08;18.83;;;;;;;;;;4988218;28;20443;-61
2022/02/21 10:01:26;;;;;;;32.47;20.08;;;;;;;;;;4993759;28;20030;-62
2022/02/21 10:03:57;;;;;;;32.40;19.73;;;;;;;;;;4991633;28;20031;-61
2022/02/21 10:06:25;;;;;;;30.83;19.60;;;;;;;;;;4993522;28;20022;-61
2022/02/21 10:08:52;;;;;;;30.73;19.50;;;;;;;;;;4992362;28;20432;-61
2022/02/21 10:11:28;;;;;;;27.88;19.08;;;;;;;;;;4993765;28;20380;-61
2022/02/21 10:14:01;;;;;;;35.40;19.58;;;;;;;;;;4990322;28;20506;-61
2022/02/21 10:16:38;;;;;;;30.58;17.77;;;;;;;;;;4992463;28;20030;-61
2022/02/21 10:19:09;;;;;;;28.42;18.42;;;;;;;;;;4988259;28;20031;-62
2022/02/21 10:21:47;;;;;;;29.58;17.17;;;;;;;;;;4988885;28;20076;-62
2022/02/21 10:24:13;;;;;;;26.88;18.23;;;;;;;;;;4980200;28;20022;-62
2022/02/21 10:26:41;;;;;;;23.60;17.40;;;;;;;;;;4975040;28;20027;-61
2022/02/21 10:29:08;;;;;;;28.67;19.17;;;;;;;;;;4982222;28;20039;-61
2022/02/21 10:31:34;;;;;;;29.35;18.45;;;;;;;;;;4976813;28;20060;-61
2022/02/21 10:34:01;;;;;;;21.98;14.27;;;;;;;;;;4991287;28;20111;-61
2022/02/21 10:36:32;;;;;;;17.35;11.98;;;;;;;;;;4988611;28;20504;-62
2022/02/21 10:38:58;;;;;;;20.67;11.05;;;;;;;;;;4991018;28;20070;-61
2022/02/21 10:41:39;;;;;;;20.05;10.27;;;;;;;;;;4980144;28;20042;-62
2022/02/21 10:44:16;;;;;;;13.02;9.48;;;;;;;;;;4974464;28;20485;-62
2022/02/21 10:46:45;;;;;;;17.77;9.85;;;;;;;;;;4976469;28;20034;-61
2022/02/21 10:49:13;;;;;;;13.18;9.02;;;;;;;;;;4980713;28;20053;-61
2022/02/21 10:51:45;;;;;;;14.80;9.18;;;;;;;;;;4973243;28;20030;-61
2022/02/21 10:54:11;;;;;;;14.68;10.40;;;;;;;;;;4973305;28;20031;-61
2022/02/21 10:56:41;;;;;;;13.95;9.70;;;;;;;;;;4984230;28;20117;-62
2022/02/21 10:59:07;;;;;;;13.13;9.32;;;;;;;;;;4981525;28;20058;-62
2022/02/21 11:01:33;;;;;;;14.60;10.05;;;;;;;;;;4981396;28;20038;-61
2022/02/21 11:04:01;;;;;;;17.33;10.07;;;;;;;;;;4973455;28;20401;-62
2022/02/21 11:06:27;;;;;;;15.02;9.75;;;;;;;;;;4972729;28;20041;-62
2022/02/21 11:08:53;;;;;;;14.65;10.27;;;;;;;;;;4972807;28;20133;-60
2022/02/21 11:11:22;;;;;;;13.07;9.32;;;;;;;;;;4985953;28;20037;-60
2022/02/21 11:13:48;;;;;;;13.68;9.50;;;;;;;;;;4972753;28;20037;-61
2022/02/21 11:16:15;;;;;;;10.32;7.75;;;;;;;;;;4980743;28;20050;-60
2022/02/21 11:18:41;;;;;;;11.60;8.10;;;;;;;;;;4988519;28;20058;-60
2022/02/21 11:21:07;;;;;;;11.25;7.25;;;;;;;;;;4987116;28;20039;-61
2022/02/21 11:23:33;;;;;;;12.20;7.20;;;;;;;;;;4985920;28;20038;-61
2022/02/21 11:25:59;;;;;;;7.72;5.45;;;;;;;;;;4988142;28;20065;-61
2022/02/21 11:28:28;;;;;;;8.85;5.43;;;;;;;;;;4984885;28;20066;-60
2022/02/21 11:30:58;;;;;;;7.93;5.13;;;;;;;;;;4972182;28;20541;-60
2022/02/21 11:33:24;;;;;;;7.47;5.55;;;;;;;;;;4980893;28;20041;-60
2022/02/21 11:36:00;;;;;;;9.43;5.13;;;;;;;;;;4988878;28;20026;-60
2022/02/21 11:38:28;;;;;;;5.95;2.95;;;;;;;;;;4991957;28;20472;-60
2022/02/21 11:40:55;;;;;;;7.10;3.03;;;;;;;;;;4985599;28;20025;-60
2022/02/21 11:43:41;;;;;;;6.22;2.95;;;;;;;;;;4991173;28;20033;-60
2022/02/21 11:46:07;;;;;;;4.20;2.42;;;;;;;;;;4978143;28;20031;-60
2022/02/21 11:48:57;;;;;;;8.82;3.95;;;;;;;;;;4972164;28;20038;-61
2022/02/21 11:51:31;;;;;;;8.00;2.45;;;;;;;;;;4975517;28;20015;-60
2022/02/21 11:54:16;;;;;;;4.13;2.45;;;;;;;;;;4984771;28;20417;-60
2022/02/21 11:56:49;;;;;;;6.05;2.08;;;;;;;;;;4982221;28;20038;-60
2022/02/21 11:59:23;;;;;;;1.70;1.55;;;;;;;;;;4971828;28;20085;-60
2022/02/21 12:02:00;;;;;;;3.45;1.10;;;;;;;;;;4973628;28;20058;-60
2022/02/21 12:04:27;;;;;;;2.45;1.30;;;;;;;;;;4975915;28;20038;-61
2022/02/21 12:06:54;;;;;;;3.08;1.20;;;;;;;;;;4979362;28;20147;-60
2022/02/21 12:09:20;;;;;;;2.22;1.00;;;;;;;;;;4987450;28;20042;-60
2022/02/21 12:11:46;;;;;;;3.90;1.35;;;;;;;;;;4981045;28;20023;-60
2022/02/21 12:14:12;;;;;;;5.25;1.10;;;;;;;;;;4971952;28;20425;-60
2022/02/21 12:16:59;;;;;;;1.95;1.10;;;;;;;;;;4984561;28;20067;-60
2022/02/21 12:19:29;;;;;;;3.17;0.90;;;;;;;;;;4988878;28;20133;-61
2022/02/21 12:22:12;;;;;;;2.53;1.10;;;;;;;;;;4978571;28;20430;-60
2022/02/21 12:24:57;;;;;;;3.33;0.70;;;;;;;;;;4971617;28;20031;-60
2022/02/21 12:27:23;;;;;;;1.23;0.98;;;;;;;;;;4977376;28;20035;-61
2022/02/21 12:29:49;;;;;;;2.25;1.13;;;;;;;;;;4989594;28;20046;-61
2022/02/21 12:32:23;;;;;;;3.85;1.20;;;;;;;;;;4985728;28;20114;-60
2022/02/21 12:34:49;;;;;;;1.38;0.85;;;;;;;;;;4971197;28;20062;-60
2022/02/21 12:37:17;;;;;;;2.42;0.63;;;;;;;;;;4974764;28;20034;-60
2022/02/21 12:39:45;;;;;;;1.17;0.60;;;;;;;;;;4989163;28;20384;-61
2022/02/21 12:42:11;;;;;;;5.07;0.40;;;;;;;;;;4983431;28;20483;-61
2022/02/21 12:44:37;;;;;;;1.20;0.40;;;;;;;;;;4982923;28;20109;-61
2022/02/21 12:47:07;;;;;;;4.03;0.43;;;;;;;;;;4976951;28;20035;-61
2022/02/21 12:49:34;;;;;;;0.73;0.30;;;;;;;;;;4977952;28;20048;-61
2022/02/21 12:52:08;;;;;;;2.03;0.28;;;;;;;;;;4986818;28;20025;-61
2022/02/21 12:54:48;;;;;;;0.57;0.40;;;;;;;;;;4980535;28;20035;-61
2022/02/21 12:57:15;;;;;;;1.65;0.55;;;;;;;;;;4976163;28;20027;-61
2022/02/21 12:59:42;;;;;;;2.70;0.50;;;;;;;;;;4970883;28;20046;-61
2022/02/21 13:02:11;;;;;;;1.92;0.40;;;;;;;;;;4976004;28;20039;-61
2022/02/21 13:04:37;;;;;;;2.70;0.30;;;;;;;;;;4983494;28;20078;-61
2022/02/21 13:07:05;;;;;;;1.10;0.30;;;;;;;;;;4975940;28;20049;-61
2022/02/21 13:09:32;;;;;;;1.70;0.22;;;;;;;;;;4970242;28;20039;-61
2022/02/21 13:11:58;;;;;;;0.32;0.17;;;;;;;;;;4974427;28;20227;-61
2022/02/21 13:14:25;;;;;;;0.35;0.20;;;;;;;;;;4985792;28;20565;-61
2022/02/21 13:16:58;;;;;;;1.95;0.95;;;;;;;;;;4988598;28;20030;-61
2022/02/21 13:19:26;;;;;;;1.65;0.52;;;;;;;;;;4976288;28;20160;-61
2022/02/21 13:21:52;;;;;;;1.45;0.10;;;;;;;;;;4978143;28;20477;-61
2022/02/21 13:24:18;;;;;;;1.23;0.38;;;;;;;;;;4970418;28;20027;-60
2022/02/21 13:26:49;;;;;;;1.88;0.20;;;;;;;;;;4976046;28;20038;-60
2022/02/21 13:29:21;;;;;;;1.65;0.20;;;;;;;;;;4979293;28;20442;-61
2022/02/21 13:31:47;;;;;;;2.33;0.20;;;;;;;;;;4974750;28;20040;-61
2022/02/21 13:34:13;;;;;;;0.82;0.30;;;;;;;;;;4985024;28;20045;-61
2022/02/21 13:36:39;;;;;;;0.35;0.20;;;;;;;;;;4992893;28;20121;-61
2022/02/21 13:39:05;;;;;;;0.90;0.10;;;;;;;;;;4984067;28;20480;-61
2022/02/21 13:41:44;;;;;;;2.00;0.13;;;;;;;;;;4974142;28;20022;-61
2022/02/21 13:44:23;;;;;;;2.33;0.28;;;;;;;;;;4979318;28;20030;-61
2022/02/21 13:46:50;;;;;;;1.15;0.17;;;;;;;;;;4990108;28;20084;-61
2022/02/21 13:49:16;;;;;;;0.70;0.10;;;;;;;;;;4985899;28;20039;-61
2022/02/21 13:51:42;;;;;;;0.82;0.17;;;;;;;;;;4972236;28;20528;-61
2022/02/21 13:54:28;;;;;;;3.47;0.30;;;;;;;;;;4974757;28;20031;-61
2022/02/21 13:57:10;;;;;;;0.00;0.00;;;;;;;;;;4983499;28;20031;-61
2022/02/21 13:59:46;;;;;;;0.60;0.10;;;;;;;;;;4975721;28;20062;-61
2022/02/21 14:02:19;;;;;;;2.85;0.20;;;;;;;;;;4993326;28;20057;-61
2022/02/21 14:04:45;;;;;;;2.28;0.20;;;;;;;;;;4974203;28;20023;-61
2022/02/21 14:07:11;;;;;;;0.73;0.10;;;;;;;;;;4985239;28;20038;-61
2022/02/21 14:09:37;;;;;;;0.73;0.03;;;;;;;;;;4977589;28;20476;-61
2022/02/21 14:12:10;;;;;;;2.10;0.52;;;;;;;;;;4982384;28;20037;-60
2022/02/21 14:14:36;;;;;;;0.15;0.10;;;;;;;;;;4974464;28;20484;-61
2022/02/21 14:17:03;;;;;;;0.63;0.20;;;;;;;;;;4971735;28;20050;-60
2022/02/21 14:19:29;;;;;;;1.10;0.22;;;;;;;;;;4973177;28;20037;-60
2022/02/21 14:21:57;;;;;;;1.52;0.20;;;;;;;;;;4988720;28;20018;-60
2022/02/21 14:24:23;;;;;;;0.38;0.20;;;;;;;;;;4978376;28;20445;-60
2022/02/21 14:26:50;;;;;;;1.13;0.20;;;;;;;;;;4992557;28;20031;-60
2022/02/21 14:29:16;;;;;;;2.03;0.50;;;;;;;;;;4978817;28;20039;-61
2022/02/21 14:31:42;;;;;;;2.33;0.40;;;;;;;;;;4982392;28;21124;-59
2022/02/21 14:34:08;;;;;;;0.90;0.17;;;;;;;;;;4975527;28;20105;-61